Haro Strait: Past 24 Hour Conditions

 

Port Hardy Airport

05:00 PM PDT 01 August 2014
This table is a summary of hourly weather conditions for the past 24 hours.
Date / Time
(PDT)
Wind(knots) Conditions Visibility(km) Pressure(kPa) Air tempC) Relative humidity(%) Dew pointC)
01 August 2014
17:00 N 11 Mainly Sunny 24 101.9 17 77 13
16:00 N 12 Mainly Sunny 24 102.0 18 77 14
15:00 N 10 Mainly Sunny 24 102.0 18 78 14
14:00 NE 6 Partly Cloudy 24 102.1 16 86 13
13:00 NE 6 Partly Cloudy 24 102.0 15 85 13
12:00 NE 6 Mainly Sunny 24 102.1 15 85 13
11:00 ENE 4 Mainly Sunny 24 102.1 15 83 12
10:00 ENE 5 Mainly Sunny 24 102.1 15 85 13
9:00 N 6 Mainly Sunny 24 102.1 16 84 13
8:00 NW 5 Partly Cloudy 24 102.1 14 86 12
7:00 SW 3 Partly Cloudy 24 102.1 7 98 7
6:00 SSW 2 Partly Cloudy 32 102.1 6 98 6
5:00 SW 2 Partly Cloudy 24 102.1 7 97 6
4:00 SSW 3 Mainly Clear 24 102.1 7 96 7
3:00 S 3 Mainly Clear 24 102.1 8 95 7
2:00 SW 2 Clear 24 102.1 8 93 7
1:00 SW 3 Clear 24 102.2 9 91 8
0:00 N 1 Clear 24 102.2 9 89 8
31 July 2014
23:00 SSW 2 Clear 24 102.1 11 86 9
22:00 W 5 Clear 24 102.2 15 68 9
21:00 WNW 4 Sunny 32 102.1 18 57 9
20:00 NW 10 gust 16 Sunny 32 102.1 18 61 11
19:00 NW 12 gust 19 Mainly Sunny 32 102.1 19 56 10
18:00 NNW 12 gust 19 Mainly Sunny 32 102.1 20 59 12
17:00 NNW 10 Mainly Sunny 32 102.2 20 59 11
 
Map of Pacific - South Coast marine weather areas Tsawwassen Ferry Terminal South Nomad - 46036 Sentry Shoal - 46131 South Brooks - 46132 Halibut Bank - 46146 South Moresby - 46147 South Hecate Strait - 46185 West Sea Otter - 46204 La Perouse Bank - 46206 East Dellwood - 46207 Discovery Island Esquimalt Harbour Kelp Reefs Malahat Race Rocks Lightstation Saturna Island Sheringham Point University of Victoria Victoria Gonzales Victoria Int'l Airport Ballenas Islands Campbell River Airport Comox Airport Entrance Island Fanny Island Nanaimo Airport Port Hardy Airport Sisters Islets Estevan Point Sartine Island Solander Island Tofino Airport Grief Point Powell River Airport Sechelt Cape St.James Bella Bella Airport Bella Coola Airport Cathedral Point Herbert Island Point Atkinson Sand Heads Lightstation Vancouver Harbour Vancouver Int'l Airport West Vancouver Port Alberni Howe Sound - Pam Rocks Squamish Airport